St. Anne, Guernsey

11:37 AM BST on August 28, 2016 (GMT +0100)
Rue de la Doucette | | Change Station

Elev 154 ft 49.71 °N, 1.92 °W | Updated 8 minutes ago

Overcast
Overcast
66.4 °F
Feels Like 66.4 °F
N
8.1
Wind Variable Wind from WSW
Gusts 14.9 mph

Today
High -- | Low -- °F
--% Chance of Precip.
Yesterday
High -- | Low -- °F
Precip. -- in
Pressure 30.01 in
Visibility 6.2 miles
Clouds Mostly Cloudy 1900 ft
Mostly Cloudy 2800 ft
Overcast 3500 ft
Dew Point 62 °F
Humidity 84%
Rainfall 0.02 in
Snow Depth Not available.
6:18 AM 7:59 PM
Waning Crescent, 16% visible
METAR LFRC 281030Z AUTO 22015KT 190V250 9999 BKN019 BKN028 OVC035 18/15 Q1016 TEMPO RA BKN012 BECMG 22015G25KT
Pressure 30.01 in
Visibility 6.2 miles
Clouds Mostly Cloudy 1900 ft
Mostly Cloudy 2800 ft
Overcast 3500 ft
Dew Point 62 °F
Humidity 84%
Rainfall 0.02 in
Snow Depth Not available.
6:18 AM 7:59 PM
Waning Crescent, 16% visible
METAR LFRC 281030Z AUTO 22015KT 190V250 9999 BKN019 BKN028 OVC035 18/15 Q1016 TEMPO RA BKN012 BECMG 22015G25KT

10-Day Weather Forecast

No radar image for this location.
×

Almanac

Astronomy

Aug. 28, 2016 Rise Set
Actual Time
Civil Twilight
Nautical Twilight
Astronomical Twilight
Moon
Length of Visible Light
Length of Day
Tomorrow will be .
, % of the Moon is Illuminated

Today's Extremes

Country Highs Country Lows

Community

WunderPhotos

Upload Photos

1,935,541 photos uploaded!

WunderBlog® & News

Nearby

Air Quality

  Air Quality AQ Index Pollutant
Not available.

Snow Depth

Station Depth Elevation

Earthquake Activity

City Distance Mag. Time & Date
Minimum magnitude displayed is 2.5.

Coastal Water Temperatures

Place Temperature

Stations

Nearby Weather Stations

Station Location Temp. Windchill Dew Point Humidity Wind Precip. Elev Updated Type